Explorer Of The Seas — C6SE4 — position and weather

sailwx.info

Track history (hours):
 
Tides and Currents Weather Stations Pressure Air Temp Water Temp Dewpoint Dewpoint Depression Visibility Wind Speed Wind Dir Waves Ship Positions

Explorer Of The Seas

Operator: Royal Caribbean Cruises Ltd

Last reported at 2014-Sep-30 01:05 UTC. Time now 2014-Oct-01 10:12 UTC.
Position N 18°02' W 063°33'.

Length 311 m; draft 9.1 m.

Type: Passenger vessel. MMSI: 311316000.

Date/timePositionNaut miles runAvg speedWind from/ knotsBaromVisibWave heightAir tempDewpointWater temp
2014-Sep-30 01:05N 18°02' W 063°33'1120.3
2014-Sep-30 00:33N 18°01' W 063°21'17 2.0
2014-Sep-29 16:06N 18°00' W 063°03'2314.6
2014-Sep-29 14:33N 18°15' W 063°21'  
2014-Sep-26 08:26N 37°50' W 070°42'2321.2
2014-Sep-26 07:20N 38°07' W 071°02'1820.0
2014-Sep-26 06:27N 38°20' W 071°18'4619.9
2014-Sep-26 04:09N 38°54' W 071°57'1320.2
2014-Sep-26 03:30N 39°03' W 072°09'1919.8
2014-Sep-26 02:33N 39°17' W 072°26'9318.7
2014-Sep-25 21:33N 40°25' W 073°49'1514.8
2014-Sep-25 20:33N 40°36' W 074°03'4 3.9
2014-Sep-25 19:27N 40°40' W 074°04'0 0.0
2014-Sep-25 18:33N 40°40' W 074°04'0 0.0
2014-Sep-25 17:30N 40°40' W 074°04'0 0.0
2014-Sep-25 16:27N 40°40' W 074°04'0 0.0
2014-Sep-25 15:33N 40°40' W 074°04'0 0.0
2014-Sep-25 12:33N 40°40' W 074°04'0 0.0
2014-Sep-25 11:33N 40°40' W 074°04'10 9.9
2014-Sep-25 10:32N 40°31' W 073°59'1414.6
2014-Sep-25 09:33N 40°24' W 073°42'1716.9
2014-Sep-25 08:33N 40°13' W 073°24'1716.7
2014-Sep-25 07:33N 40°03' W 073°07'1716.9
2014-Sep-25 06:34N 39°52' W 072°51'1717.1
2014-Sep-25 05:33N 39°40' W 072°35'1817.2
2014-Sep-25 04:32N 39°27' W 072°20'1717.3
2014-Sep-25 03:34N 39°14' W 072°05'  
2014-Sep-21 09:12N 37°48' W 070°39'1320.4
2014-Sep-21 08:32N 37°58' W 070°51'2019.1
2014-Sep-21 07:31N 38°12' W 071°08'1818.8
2014-Sep-21 06:33N 38°25' W 071°24'1918.5
2014-Sep-21 05:33N 38°39' W 071°40'1918.6
2014-Sep-21 04:33N 38°52' W 071°56'1918.6
2014-Sep-21 03:33N 39°06' W 072°13'1918.6
2014-Sep-21 02:33N 39°19' W 072°29'2019.0
2014-Sep-21 01:29N 39°34' W 072°47'1819.3
2014-Sep-21 00:34N 39°47' W 073°03'1918.8
2014-Sep-20 23:33N 40°01' W 073°20'1919.0
2014-Sep-20 22:33N 40°15' W 073°36'1616.0
2014-Sep-20 21:33N 40°27' W 073°50'1413.9
2014-Sep-20 20:34N 40°37' W 074°03'3 2.8
2014-Sep-20 19:31N 40°40' W 074°04'0 0.0
2014-Sep-20 18:28N 40°40' W 074°04'0 0.0
2014-Sep-20 16:28N 40°40' W 074°04'0 0.0
2014-Sep-20 15:22N 40°40' W 074°04'0 0.0
2014-Sep-20 13:28N 40°40' W 074°04'0 0.0
2014-Sep-20 12:28N 40°40' W 074°04'0 0.0
2014-Sep-20 11:33N 40°40' W 074°04'1110.9
2014-Sep-20 10:33N 40°30' W 073°58'1111.1
2014-Sep-20 09:33N 40°27' W 073°43'1010.2
2014-Sep-20 08:33N 40°28' W 073°30'1010.2
2014-Sep-20 07:33N 40°29' W 073°17'1010.3
2014-Sep-20 06:33N 40°29' W 073°03'1010.2
2014-Sep-20 05:33N 40°30' W 072°50'1010.1
2014-Sep-20 04:33N 40°30' W 072°36'1010.0
2014-Sep-20 03:33N 40°30' W 072°23'1010.1
2014-Sep-20 02:33N 40°31' W 072°10'10 9.9
2014-Sep-20 01:33N 40°31' W 071°57'  
Track history (hours):
 
Tides and Currents Weather Stations Pressure Air Temp Water Temp Dewpoint Dewpoint Depression Visibility Wind Speed Wind Dir Waves Ship Positions

Explorer Of The Seas

Operator: Royal Caribbean Cruises Ltd

Last reported at 2014-Sep-30 01:05 UTC. Time now 2014-Oct-01 10:12 UTC.
Position N 18°02' W 063°33'.

Length 311 m; draft 9.1 m.

Type: Passenger vessel. MMSI: 311316000.

Date/timePositionNaut miles runAvg speedWind from/ knotsBaromVisibWave heightAir tempDewpointWater temp
2014-Sep-30 01:05N 18°02' W 063°33'1120.3
2014-Sep-30 00:33N 18°01' W 063°21'17 2.0
2014-Sep-29 16:06N 18°00' W 063°03'2314.6
2014-Sep-29 14:33N 18°15' W 063°21'  
2014-Sep-26 08:26N 37°50' W 070°42'2321.2
2014-Sep-26 07:20N 38°07' W 071°02'1820.0
2014-Sep-26 06:27N 38°20' W 071°18'4619.9
2014-Sep-26 04:09N 38°54' W 071°57'1320.2
2014-Sep-26 03:30N 39°03' W 072°09'1919.8
2014-Sep-26 02:33N 39°17' W 072°26'9318.7
2014-Sep-25 21:33N 40°25' W 073°49'1514.8
2014-Sep-25 20:33N 40°36' W 074°03'4 3.9
2014-Sep-25 19:27N 40°40' W 074°04'0 0.0
2014-Sep-25 18:33N 40°40' W 074°04'0 0.0
2014-Sep-25 17:30N 40°40' W 074°04'0 0.0
2014-Sep-25 16:27N 40°40' W 074°04'0 0.0
2014-Sep-25 15:33N 40°40' W 074°04'0 0.0
2014-Sep-25 12:33N 40°40' W 074°04'0 0.0
2014-Sep-25 11:33N 40°40' W 074°04'10 9.9
2014-Sep-25 10:32N 40°31' W 073°59'1414.6
2014-Sep-25 09:33N 40°24' W 073°42'1716.9
2014-Sep-25 08:33N 40°13' W 073°24'1716.7
2014-Sep-25 07:33N 40°03' W 073°07'1716.9
2014-Sep-25 06:34N 39°52' W 072°51'1717.1
2014-Sep-25 05:33N 39°40' W 072°35'1817.2
2014-Sep-25 04:32N 39°27' W 072°20'1717.3
2014-Sep-25 03:34N 39°14' W 072°05'  
2014-Sep-21 09:12N 37°48' W 070°39'1320.4
2014-Sep-21 08:32N 37°58' W 070°51'2019.1
2014-Sep-21 07:31N 38°12' W 071°08'1818.8
2014-Sep-21 06:33N 38°25' W 071°24'1918.5
2014-Sep-21 05:33N 38°39' W 071°40'1918.6
2014-Sep-21 04:33N 38°52' W 071°56'1918.6
2014-Sep-21 03:33N 39°06' W 072°13'1918.6
2014-Sep-21 02:33N 39°19' W 072°29'2019.0
2014-Sep-21 01:29N 39°34' W 072°47'1819.3
2014-Sep-21 00:34N 39°47' W 073°03'1918.8
2014-Sep-20 23:33N 40°01' W 073°20'1919.0
2014-Sep-20 22:33N 40°15' W 073°36'1616.0
2014-Sep-20 21:33N 40°27' W 073°50'1413.9
2014-Sep-20 20:34N 40°37' W 074°03'3 2.8
2014-Sep-20 19:31N 40°40' W 074°04'0 0.0
2014-Sep-20 18:28N 40°40' W 074°04'0 0.0
2014-Sep-20 16:28N 40°40' W 074°04'0 0.0
2014-Sep-20 15:22N 40°40' W 074°04'0 0.0
2014-Sep-20 13:28N 40°40' W 074°04'0 0.0
2014-Sep-20 12:28N 40°40' W 074°04'0 0.0
2014-Sep-20 11:33N 40°40' W 074°04'1110.9
2014-Sep-20 10:33N 40°30' W 073°58'1111.1
2014-Sep-20 09:33N 40°27' W 073°43'1010.2
2014-Sep-20 08:33N 40°28' W 073°30'1010.2
2014-Sep-20 07:33N 40°29' W 073°17'1010.3
2014-Sep-20 06:33N 40°29' W 073°03'1010.2
2014-Sep-20 05:33N 40°30' W 072°50'1010.1
2014-Sep-20 04:33N 40°30' W 072°36'1010.0
2014-Sep-20 03:33N 40°30' W 072°23'1010.1
2014-Sep-20 02:33N 40°31' W 072°10'10 9.9
2014-Sep-20 01:33N 40°31' W 071°57'  

Dump ship's entire track history